createdAt,value
2023-03-11T00:01:57.989Z,65.43
2023-03-11T00:04:27.893Z,57.92
2023-03-11T00:06:57.542Z,60.17
2023-03-11T00:09:27.153Z,66.55
2023-03-11T00:11:56.685Z,61.83
2023-03-11T00:14:26.322Z,65.43
2023-03-11T00:16:56.017Z,59.60
2023-03-11T00:19:25.700Z,62.92
2023-03-11T00:21:55.306Z,61.33
2023-03-11T00:24:25.019Z,63.58
2023-03-11T00:26:56.165Z,62.83
2023-03-11T00:29:26.362Z,60.22
2023-03-11T00:31:56.186Z,61.17
2023-03-11T00:34:27.246Z,59.83
2023-03-11T00:36:56.856Z,61.22
2023-03-11T00:39:26.462Z,56.33
2023-03-11T00:41:58.046Z,54.97
2023-03-11T00:44:27.735Z,59.20
2023-03-11T00:46:57.848Z,60.97
2023-03-11T00:49:27.510Z,48.97
2023-03-11T00:51:57.205Z,52.30
2023-03-11T00:54:26.777Z,58.03
2023-03-11T00:56:57.177Z,58.03
2023-03-11T00:59:26.838Z,50.65
2023-03-11T01:01:56.355Z,46.45
2023-03-11T01:04:26.022Z,45.35
2023-03-11T01:06:55.626Z,50.97
2023-03-11T01:09:25.196Z,48.85
2023-03-11T01:11:55.735Z,50.78
2023-03-11T01:14:25.445Z,47.05
2023-03-11T01:16:56.415Z,43.95
2023-03-11T01:19:26.027Z,47.83
2023-03-11T01:21:55.578Z,45.75
2023-03-11T01:24:25.727Z,39.30
2023-03-11T01:26:55.357Z,46.13
2023-03-11T01:29:24.978Z,43.38
2023-03-11T01:31:55.922Z,46.60
2023-03-11T01:34:25.488Z,44.67
2023-03-11T01:36:55.005Z,48.53
2023-03-11T01:39:24.581Z,41.63
2023-03-11T01:41:54.634Z,43.00
2023-03-11T01:44:24.446Z,40.33
2023-03-11T01:47:00.124Z,39.53
2023-03-11T01:49:30.252Z,43.13
2023-03-11T01:52:05.522Z,34.35
2023-03-11T01:54:38.345Z,37.28
2023-03-11T01:57:15.863Z,33.60
2023-03-11T01:59:53.961Z,37.45
2023-03-11T02:02:31.201Z,36.97
2023-03-11T02:05:03.624Z,34.05
2023-03-11T02:07:33.272Z,32.20
2023-03-11T02:10:03.702Z,41.65
2023-03-11T02:12:38.773Z,38.60
2023-03-11T02:15:10.714Z,31.20
2023-03-11T02:17:42.911Z,33.92
2023-03-11T02:20:43.146Z,33.67
2023-03-11T02:23:15.121Z,32.70
2023-03-11T02:26:07.756Z,32.88
2023-03-11T02:28:39.852Z,35.10
2023-03-11T02:31:10.138Z,27.63
2023-03-11T02:33:39.839Z,31.02
2023-03-11T02:36:09.891Z,25.60
2023-03-11T02:38:39.443Z,27.80
2023-03-11T02:41:09.163Z,26.85
2023-03-11T02:43:47.108Z,29.15
2023-03-11T02:46:17.200Z,27.52
2023-03-11T02:48:47.353Z,29.27
2023-03-11T02:51:17.209Z,31.58
2023-03-11T02:53:57.050Z,29.73
2023-03-11T02:56:26.617Z,28.10
2023-03-11T02:58:56.370Z,27.98
2023-03-11T03:01:26.188Z,29.55
2023-03-11T03:03:55.907Z,24.45
2023-03-11T03:06:26.619Z,29.05
2023-03-11T03:08:56.408Z,23.20
2023-03-11T03:11:26.055Z,21.73
2023-03-11T03:13:55.628Z,28.17
2023-03-11T03:16:25.266Z,21.02
2023-03-11T03:18:54.906Z,26.95
2023-03-11T03:21:24.468Z,24.85
2023-03-11T03:23:54.002Z,25.27
2023-03-11T03:26:23.550Z,23.17
2023-03-11T03:28:53.103Z,23.65
2023-03-11T03:31:22.974Z,24.05
2023-03-11T03:33:52.665Z,23.30
2023-03-11T03:36:22.232Z,29.20
2023-03-11T03:38:55.410Z,27.50
2023-03-11T03:41:25.849Z,23.73
2023-03-11T03:43:56.365Z,23.02
2023-03-11T03:46:25.981Z,19.80
2023-03-11T03:48:55.656Z,21.77
2023-03-11T03:51:25.346Z,22.73
2023-03-11T03:53:54.901Z,23.27
2023-03-11T03:56:24.452Z,28.08
2023-03-11T03:58:54.978Z,20.00
2023-03-11T04:01:24.534Z,21.52
2023-03-11T04:03:54.138Z,24.83
2023-03-11T04:06:26.836Z,23.30
2023-03-11T04:08:57.014Z,22.45
2023-03-11T04:11:26.586Z,24.65
2023-03-11T04:13:57.123Z,25.48
2023-03-11T04:16:27.244Z,17.48
2023-03-11T04:18:56.928Z,28.15
2023-03-11T04:21:26.586Z,23.27
2023-03-11T04:23:56.098Z,22.17
2023-03-11T04:26:25.618Z,25.73
2023-03-11T04:28:55.256Z,23.75
2023-03-11T04:31:24.829Z,25.52
2023-03-11T04:33:54.756Z,22.88
2023-03-11T04:36:24.292Z,25.00
2023-03-11T04:38:54.011Z,25.75
2023-03-11T04:41:23.541Z,22.45
2023-03-11T04:43:53.151Z,19.95
2023-03-11T04:46:22.894Z,21.02
2023-03-11T04:48:52.696Z,20.25
2023-03-11T04:51:22.370Z,20.00
2023-03-11T04:53:51.948Z,19.20
2023-03-11T04:56:21.490Z,20.70
2023-03-11T04:58:50.998Z,22.42
2023-03-11T05:01:20.775Z,19.08
2023-03-11T05:03:50.451Z,21.00
2023-03-11T05:06:19.975Z,23.13
2023-03-11T05:08:49.523Z,19.73
2023-03-11T05:11:19.176Z,17.95
2023-03-11T05:13:48.875Z,20.58
2023-03-11T05:16:18.718Z,17.55
2023-03-11T05:18:48.307Z,20.17
2023-03-11T05:21:17.922Z,24.33
2023-03-11T05:23:47.541Z,19.95
2023-03-11T05:26:17.192Z,18.27
2023-03-11T05:28:46.808Z,24.10
2023-03-11T05:31:16.705Z,17.77
2023-03-11T05:33:46.353Z,17.90
2023-03-11T05:36:15.844Z,18.75
2023-03-11T05:38:45.407Z,20.50
2023-03-11T05:41:14.979Z,20.25
2023-03-11T05:43:44.474Z,20.10
2023-03-11T05:46:14.483Z,19.75
2023-03-11T05:48:44.164Z,19.02
2023-03-11T05:51:14.703Z,21.98
2023-03-11T05:53:50.069Z,22.98
2023-03-11T05:56:21.660Z,19.70
2023-03-11T05:58:51.487Z,16.92
2023-03-11T06:01:22.422Z,18.02
2023-03-11T06:03:52.101Z,15.45
2023-03-11T06:06:22.163Z,19.17
2023-03-11T06:08:51.856Z,17.67
2023-03-11T06:11:21.652Z,22.13
2023-03-11T06:13:54.061Z,15.00
2023-03-11T06:16:24.862Z,17.02
2023-03-11T06:18:54.747Z,18.55
2023-03-11T06:21:28.156Z,20.15
2023-03-11T06:26:27.331Z,28.90
2023-03-11T06:28:56.936Z,18.20
2023-03-11T06:31:28.700Z,20.67
2023-03-11T06:33:58.481Z,22.67
2023-03-11T06:36:28.388Z,17.30
2023-03-11T06:38:57.898Z,13.95
2023-03-11T06:41:27.747Z,17.70
2023-03-11T06:43:57.313Z,20.25
2023-03-11T06:46:26.950Z,20.13
2023-03-11T06:48:57.123Z,15.75
2023-03-11T06:51:26.832Z,15.43
2023-03-11T06:53:56.569Z,14.80
2023-03-11T06:56:26.394Z,14.80
2023-03-11T06:58:56.920Z,17.75
2023-03-11T07:01:29.610Z,17.17
2023-03-11T07:03:59.341Z,17.10
2023-03-11T07:06:30.769Z,17.85
2023-03-11T07:09:00.364Z,14.85
2023-03-11T07:11:30.849Z,17.33
2023-03-11T07:14:00.819Z,16.58
2023-03-11T07:16:32.339Z,15.95
2023-03-11T07:19:04.732Z,16.13
2023-03-11T07:21:35.506Z,16.13
2023-03-11T07:24:06.150Z,15.27
2023-03-11T07:26:37.311Z,13.95
2023-03-11T07:29:07.255Z,19.38
2023-03-11T07:31:38.513Z,17.80
2023-03-11T07:34:12.907Z,14.50
2023-03-11T07:36:43.841Z,15.90
2023-03-11T07:39:17.817Z,15.10
2023-03-11T07:41:47.933Z,14.07
2023-03-11T07:44:18.797Z,15.75
2023-03-11T07:46:48.653Z,16.08
2023-03-11T07:49:18.624Z,14.93
2023-03-11T07:51:48.279Z,18.00
2023-03-11T07:54:18.295Z,21.38
2023-03-11T07:56:48.382Z,16.75
2023-03-11T07:59:18.128Z,12.32
2023-03-11T08:01:48.719Z,13.73
2023-03-11T08:04:18.565Z,13.57
2023-03-11T08:06:49.704Z,15.85
2023-03-11T08:09:19.403Z,13.75
2023-03-11T08:11:49.827Z,15.07
2023-03-11T08:14:19.667Z,16.33
2023-03-11T08:16:49.376Z,15.30
2023-03-11T08:19:18.920Z,17.88
2023-03-11T08:21:48.614Z,19.67
2023-03-11T08:24:18.343Z,17.27
2023-03-11T08:26:47.900Z,16.70
2023-03-11T08:29:17.507Z,14.77
2023-03-11T08:31:47.033Z,16.95
2023-03-11T08:34:17.367Z,17.58
2023-03-11T08:36:47.000Z,18.27
2023-03-11T08:39:16.602Z,20.58
2023-03-11T08:41:46.273Z,20.27
2023-03-11T08:44:15.871Z,27.80
2023-03-11T08:46:45.662Z,20.88
2023-03-11T08:49:15.366Z,24.00
2023-03-11T08:51:44.999Z,24.48
2023-03-11T08:54:14.622Z,19.63
2023-03-11T08:56:44.173Z,18.38
2023-03-11T08:59:13.810Z,19.30
2023-03-11T09:01:44.101Z,18.70
2023-03-11T09:04:13.658Z,18.63
2023-03-11T09:06:46.726Z,17.83
2023-03-11T09:09:25.841Z,18.95
2023-03-11T09:11:55.418Z,18.40
2023-03-11T09:14:25.075Z,16.40
2023-03-11T09:16:54.597Z,16.80
2023-03-11T09:19:24.171Z,22.80
2023-03-11T09:21:53.693Z,22.20
2023-03-11T09:24:23.317Z,18.27
2023-03-11T09:26:52.880Z,19.92
2023-03-11T09:29:22.680Z,16.63
2023-03-11T09:31:52.400Z,14.95
2023-03-11T09:34:22.235Z,19.42
2023-03-11T09:36:52.009Z,19.65
2023-03-11T09:39:21.722Z,19.00
2023-03-11T09:42:03.716Z,17.00
2023-03-11T09:44:47.803Z,17.05
2023-03-11T09:47:39.278Z,17.67
2023-03-11T09:50:33.005Z,17.35
2023-03-11T09:53:10.137Z,18.33
2023-03-11T09:55:55.214Z,17.42
2023-03-11T09:58:52.117Z,15.05
2023-03-11T10:01:29.119Z,16.20
2023-03-11T10:04:05.643Z,20.00
2023-03-11T10:06:35.241Z,18.13
2023-03-11T10:09:39.721Z,17.13
2023-03-11T10:12:30.444Z,14.05
2023-03-11T10:15:43.883Z,16.23
2023-03-11T10:18:19.144Z,17.05
2023-03-11T10:20:57.291Z,15.57
2023-03-11T10:23:52.554Z,18.45
2023-03-11T10:26:38.672Z,17.58
2023-03-11T10:29:24.350Z,18.67
2023-03-11T10:32:01.433Z,17.83
2023-03-11T10:34:49.716Z,17.33
2023-03-11T10:37:22.858Z,18.58
2023-03-11T10:39:53.448Z,18.90
2023-03-11T10:42:29.763Z,19.42
2023-03-11T10:44:59.505Z,17.10
2023-03-11T10:47:29.174Z,17.23
2023-03-11T10:49:58.750Z,19.45
2023-03-11T10:52:28.388Z,20.55
2023-03-11T10:55:05.526Z,14.43
2023-03-11T10:57:40.456Z,17.63
2023-03-11T11:00:18.739Z,19.00
2023-03-11T11:03:01.304Z,19.33
2023-03-11T11:05:34.180Z,18.02
2023-03-11T11:08:18.812Z,17.08
2023-03-11T11:10:54.635Z,17.67
2023-03-11T11:13:27.364Z,20.48
2023-03-11T11:16:05.747Z,16.67
2023-03-11T11:18:48.216Z,16.83
2023-03-11T11:21:36.759Z,19.38
2023-03-11T11:24:30.434Z,16.88
2023-03-11T11:27:22.989Z,17.95
2023-03-11T11:30:10.697Z,16.83
2023-03-11T11:32:40.592Z,15.32
2023-03-11T11:35:21.385Z,15.90
2023-03-11T11:37:57.649Z,13.88
2023-03-11T11:40:29.722Z,20.88
2023-03-11T11:43:06.191Z,18.45
2023-03-11T11:45:56.209Z,17.83
2023-03-11T11:48:28.966Z,14.82
2023-03-11T11:51:03.748Z,13.38
2023-03-11T11:53:43.071Z,14.75
2023-03-11T11:56:12.604Z,12.98
2023-03-11T11:58:43.187Z,18.63
2023-03-11T12:01:17.602Z,19.33
2023-03-11T12:04:23.552Z,18.17
2023-03-11T12:07:14.545Z,16.90
2023-03-11T12:10:23.742Z,20.33
2023-03-11T12:13:33.470Z,16.35
2023-03-11T12:16:11.838Z,17.38
2023-03-11T12:19:21.818Z,18.38
2023-03-11T12:22:02.428Z,17.10
2023-03-11T12:24:53.015Z,19.00
2023-03-11T12:27:32.181Z,15.85
2023-03-11T12:30:07.277Z,15.75
2023-03-11T12:32:56.069Z,16.30
2023-03-11T12:35:34.943Z,19.45
2023-03-11T12:38:18.826Z,14.82
2023-03-11T12:41:00.372Z,19.98
2023-03-11T12:43:35.901Z,18.38
2023-03-11T12:46:07.815Z,17.20
2023-03-11T12:48:46.989Z,17.73
2023-03-11T12:52:06.519Z,17.55
2023-03-11T12:54:41.056Z,16.63
2023-03-11T12:57:32.563Z,20.17
2023-03-11T13:00:32.755Z,17.20
2023-03-11T13:03:26.774Z,19.33
2023-03-11T13:08:56.824Z,20.20
2023-03-11T13:11:29.442Z,19.23
2023-03-11T13:14:19.749Z,17.70
2023-03-11T13:16:50.175Z,17.58
2023-03-11T13:19:40.279Z,17.60
2023-03-11T13:22:45.770Z,18.92
2023-03-11T13:25:38.213Z,17.75
2023-03-11T13:28:19.583Z,25.05
2023-03-11T13:31:23.941Z,21.75
2023-03-11T13:34:06.272Z,17.45
2023-03-11T13:36:48.768Z,16.42
2023-03-11T13:39:48.111Z,20.15
2023-03-11T13:42:29.869Z,18.75
2023-03-11T13:45:00.267Z,16.90
2023-03-11T13:47:33.422Z,19.77
2023-03-11T13:50:12.742Z,17.20
2023-03-11T13:52:50.045Z,18.73
2023-03-11T13:55:30.396Z,22.15
2023-03-11T13:58:00.713Z,20.35
2023-03-11T14:00:35.467Z,19.85
2023-03-11T14:03:12.087Z,18.73
2023-03-11T14:05:48.360Z,23.08
2023-03-11T14:08:23.910Z,18.40
2023-03-11T14:11:02.329Z,18.15
2023-03-11T14:13:34.920Z,22.92
2023-03-11T14:16:22.905Z,20.67
2023-03-11T14:19:28.865Z,18.20
2023-03-11T14:21:58.550Z,17.60
2023-03-11T14:24:32.240Z,16.10
2023-03-11T14:27:06.539Z,16.20
2023-03-11T14:29:40.070Z,17.30
2023-03-11T14:32:32.928Z,19.35
2023-03-11T14:35:03.324Z,19.98
2023-03-11T14:37:39.404Z,19.33
2023-03-11T14:40:29.078Z,17.77
2023-03-11T14:43:03.581Z,18.55
2023-03-11T14:45:40.554Z,19.35
2023-03-11T14:48:31.299Z,20.67
2023-03-11T14:51:04.504Z,16.52
2023-03-11T14:54:11.168Z,18.20
2023-03-11T14:56:46.312Z,18.77
2023-03-11T14:59:28.267Z,19.45
2023-03-11T15:02:06.382Z,20.27
2023-03-11T15:04:45.769Z,19.30
2023-03-11T15:07:15.981Z,18.67
2023-03-11T15:09:45.671Z,19.75
2023-03-11T15:12:36.892Z,18.58
2023-03-11T15:15:22.634Z,20.02
2023-03-11T15:17:59.667Z,19.48
2023-03-11T15:20:34.194Z,20.80
2023-03-11T15:23:07.523Z,22.10
2023-03-11T15:25:40.268Z,19.25
2023-03-11T15:28:33.582Z,21.88
2023-03-11T15:31:24.539Z,21.70
2023-03-11T15:33:54.141Z,16.10
2023-03-11T15:36:42.130Z,18.80
2023-03-11T15:39:16.370Z,21.63
2023-03-11T15:42:00.310Z,17.35
2023-03-11T15:44:35.036Z,18.90
2023-03-11T15:47:05.866Z,19.38
2023-03-11T15:49:36.365Z,18.83
2023-03-11T15:52:06.057Z,18.50
2023-03-11T15:54:35.668Z,18.75
2023-03-11T15:57:12.846Z,20.90
2023-03-11T15:59:43.966Z,19.83
2023-03-11T16:02:34.355Z,17.63
2023-03-11T16:05:04.084Z,18.02
2023-03-11T16:07:39.869Z,18.55
2023-03-11T16:10:12.104Z,24.98
2023-03-11T16:12:41.992Z,17.77
2023-03-11T16:15:36.479Z,20.50
2023-03-11T16:18:10.290Z,21.60
2023-03-11T16:20:51.332Z,19.80
2023-03-11T16:23:30.742Z,19.00
2023-03-11T16:26:04.928Z,19.75
2023-03-11T16:28:34.495Z,20.73
2023-03-11T16:31:04.494Z,19.67
2023-03-11T16:33:35.266Z,22.63
2023-03-11T16:36:06.034Z,20.95
2023-03-11T16:38:46.218Z,19.67
2023-03-11T16:41:16.243Z,20.00
2023-03-11T16:43:46.451Z,20.40
2023-03-11T16:46:16.043Z,20.80
2023-03-11T16:48:45.708Z,20.05
2023-03-11T16:51:15.294Z,20.25
2023-03-11T16:53:44.879Z,18.90
2023-03-11T16:56:14.491Z,22.55
2023-03-11T16:58:44.215Z,18.30
2023-03-11T17:01:18.433Z,17.75
2023-03-11T17:03:50.195Z,20.15
2023-03-11T17:06:21.853Z,20.58
2023-03-11T17:08:52.235Z,19.10
2023-03-11T17:11:29.795Z,22.05
2023-03-11T17:14:13.926Z,16.70
2023-03-11T17:16:46.668Z,24.65
2023-03-11T17:19:17.169Z,22.27
2023-03-11T17:21:46.839Z,22.50
2023-03-11T17:24:16.426Z,20.92
2023-03-11T17:26:45.988Z,20.05
2023-03-11T17:29:15.569Z,25.38
2023-03-11T17:31:45.175Z,21.10
2023-03-11T17:34:16.205Z,20.80
2023-03-11T17:36:45.893Z,22.65
2023-03-11T17:39:15.491Z,19.63
2023-03-11T17:41:45.121Z,20.77
2023-03-11T17:44:14.653Z,19.88
2023-03-11T17:46:44.420Z,22.40
2023-03-11T17:49:16.596Z,21.25
2023-03-11T17:51:46.131Z,25.50
2023-03-11T17:54:15.746Z,21.40
2023-03-11T17:56:45.308Z,23.60
2023-03-11T17:59:16.510Z,22.92
2023-03-11T18:01:47.415Z,27.47
2023-03-11T18:04:17.004Z,22.02
2023-03-11T18:06:46.662Z,25.80
2023-03-11T18:09:18.368Z,24.98
2023-03-11T18:11:47.968Z,22.92
2023-03-11T18:14:17.562Z,23.30
2023-03-11T18:16:47.146Z,25.45
2023-03-11T18:19:16.849Z,23.23
2023-03-11T18:21:46.902Z,25.65
2023-03-11T18:24:16.484Z,25.20
2023-03-11T18:26:46.046Z,22.05
2023-03-11T18:29:15.588Z,23.13
2023-03-11T18:31:45.156Z,28.45
2023-03-11T18:34:15.685Z,23.17
2023-03-11T18:36:45.356Z,28.50
2023-03-11T18:39:15.300Z,26.70
2023-03-11T18:41:45.235Z,24.85
2023-03-11T18:44:14.770Z,22.88
2023-03-11T18:46:44.548Z,26.15
2023-03-11T18:49:15.739Z,25.10
2023-03-11T18:51:45.376Z,25.15
2023-03-11T18:54:14.991Z,25.50
2023-03-11T18:56:44.574Z,22.60
2023-03-11T18:59:15.880Z,28.73
2023-03-11T19:01:45.514Z,27.75
2023-03-11T19:04:15.174Z,23.83
2023-03-11T19:06:44.756Z,29.70
2023-03-11T19:09:14.471Z,26.73
2023-03-11T19:11:43.987Z,26.55
2023-03-11T19:14:13.903Z,25.60
2023-03-11T19:16:43.704Z,28.42
2023-03-11T19:19:13.424Z,28.55
2023-03-11T19:21:43.074Z,24.77
2023-03-11T19:24:12.817Z,26.17
2023-03-11T19:26:45.809Z,28.52
2023-03-11T19:29:16.867Z,28.27
2023-03-11T19:31:46.877Z,23.65
2023-03-11T19:34:16.383Z,21.88
2023-03-11T19:36:48.184Z,28.85
2023-03-11T19:39:17.698Z,27.30
2023-03-11T19:41:47.218Z,25.30
2023-03-11T19:44:16.871Z,26.30
2023-03-11T19:46:46.414Z,27.40
2023-03-11T19:49:15.981Z,23.73
2023-03-11T19:51:49.982Z,25.55
2023-03-11T19:54:21.254Z,25.85
2023-03-11T19:56:51.774Z,28.40
2023-03-11T19:59:21.393Z,22.25
2023-03-11T20:01:50.964Z,29.27
2023-03-11T20:04:20.703Z,29.98
2023-03-11T20:06:50.435Z,24.63
2023-03-11T20:09:20.116Z,27.15
2023-03-11T20:11:49.923Z,24.52
2023-03-11T20:14:19.603Z,27.45
2023-03-11T20:16:49.250Z,26.08
2023-03-11T20:19:19.020Z,29.30
2023-03-11T20:21:48.716Z,30.10
2023-03-11T20:24:18.466Z,26.92
2023-03-11T20:26:50.057Z,27.45
2023-03-11T20:29:20.942Z,27.73
2023-03-11T20:31:50.638Z,26.13
2023-03-11T20:34:20.445Z,32.72
2023-03-11T20:36:50.573Z,28.40
2023-03-11T20:39:20.339Z,29.88
2023-03-11T20:41:49.985Z,30.92
2023-03-11T20:44:19.516Z,29.80
2023-03-11T20:46:50.863Z,29.25
2023-03-11T20:49:20.605Z,28.40
2023-03-11T20:51:50.223Z,29.00
2023-03-11T20:54:19.862Z,28.77
2023-03-11T20:56:51.060Z,27.92
2023-03-11T20:59:20.680Z,28.60
2023-03-11T21:01:50.804Z,27.80
2023-03-11T21:04:21.119Z,30.00
2023-03-11T21:06:58.945Z,26.00
2023-03-11T21:09:28.478Z,26.73
2023-03-11T21:11:58.218Z,31.40
2023-03-11T21:14:27.773Z,32.47
2023-03-11T21:16:57.382Z,29.20
2023-03-11T21:19:27.156Z,28.15
2023-03-11T21:21:56.892Z,32.50
2023-03-11T21:24:29.193Z,32.08
2023-03-11T21:26:58.780Z,31.52
2023-03-11T21:29:28.411Z,29.13
2023-03-11T21:31:58.371Z,27.27
2023-03-11T21:34:28.262Z,28.13
2023-03-11T21:36:57.929Z,35.15
2023-03-11T21:39:27.636Z,33.13
2023-03-11T21:41:58.631Z,33.50
2023-03-11T21:44:29.352Z,34.47
2023-03-11T21:46:59.101Z,30.13
2023-03-11T21:49:29.245Z,31.75
2023-03-11T21:52:01.677Z,31.90
2023-03-11T21:54:31.842Z,34.72
2023-03-11T21:57:01.511Z,34.92
2023-03-11T21:59:32.929Z,38.55
2023-03-11T22:02:04.416Z,38.38
2023-03-11T22:04:34.430Z,34.45
2023-03-11T22:07:04.199Z,38.30
2023-03-11T22:09:33.929Z,35.90
2023-03-11T22:12:03.896Z,37.78
2023-03-11T22:14:33.569Z,40.55
2023-03-11T22:17:03.312Z,36.03
2023-03-11T22:19:33.169Z,35.55
2023-03-11T22:22:02.857Z,33.17
2023-03-11T22:24:32.382Z,32.63
2023-03-11T22:27:02.053Z,37.67
2023-03-11T22:29:31.676Z,36.88
2023-03-11T22:32:01.465Z,33.90
2023-03-11T22:34:31.040Z,37.28
2023-03-11T22:37:00.715Z,39.78
2023-03-11T22:39:30.434Z,36.03
2023-03-11T22:42:00.018Z,35.75
2023-03-11T22:44:29.969Z,37.22
2023-03-11T22:46:59.506Z,34.70
2023-03-11T22:49:29.156Z,36.13
2023-03-11T22:51:58.820Z,33.22
2023-03-11T22:54:28.569Z,35.83
2023-03-11T22:56:58.234Z,35.40
2023-03-11T22:59:32.063Z,36.70
2023-03-11T23:02:01.789Z,36.97
2023-03-11T23:04:31.398Z,36.67
2023-03-11T23:07:00.964Z,32.08
2023-03-11T23:09:30.489Z,35.65
2023-03-11T23:12:00.057Z,36.60
2023-03-11T23:14:43.727Z,34.35
2023-03-11T23:17:14.573Z,32.30
2023-03-11T23:19:44.218Z,34.50
2023-03-11T23:22:13.928Z,31.90
2023-03-11T23:24:43.471Z,33.83
2023-03-11T23:27:13.031Z,30.77
2023-03-11T23:29:45.340Z,31.25
2023-03-11T23:32:14.959Z,33.15
2023-03-11T23:34:44.648Z,33.47
2023-03-11T23:37:14.270Z,31.60
2023-03-11T23:39:43.836Z,30.50
2023-03-11T23:42:25.052Z,29.40
2023-03-11T23:44:56.059Z,28.25
2023-03-11T23:47:25.749Z,28.73
2023-03-11T23:49:55.344Z,30.85
2023-03-11T23:52:25.103Z,26.33
2023-03-11T23:54:54.704Z,26.85
2023-03-11T23:57:24.576Z,24.08
2023-03-11T23:59:54.275Z,25.90
